createdAt,value
2022-08-17T00:02:25.887Z,22.52
2022-08-17T00:04:54.292Z,22.39
2022-08-17T00:07:21.249Z,22.33
2022-08-17T00:09:47.724Z,22.33
2022-08-17T00:12:40.986Z,22.29
2022-08-17T00:15:01.245Z,22.26
2022-08-17T00:17:27.978Z,22.18
2022-08-17T00:19:54.426Z,22.15
2022-08-17T00:22:32.001Z,22.12
2022-08-17T00:25:09.584Z,22.07
2022-08-17T00:27:36.929Z,21.98
2022-08-17T00:30:05.989Z,21.94
2022-08-17T00:33:14.245Z,21.85
2022-08-17T00:35:27.917Z,21.80
2022-08-17T00:37:54.727Z,21.77
2022-08-17T00:40:21.342Z,21.72
2022-08-17T00:42:51.276Z,21.68
2022-08-17T00:45:20.239Z,21.61
2022-08-17T00:47:47.023Z,21.58
2022-08-17T00:50:18.293Z,21.52
2022-08-17T00:52:54.754Z,21.50
2022-08-17T00:55:23.133Z,21.49
2022-08-17T00:57:55.362Z,21.41
2022-08-17T01:00:26.739Z,21.37
2022-08-17T01:02:58.105Z,21.31
2022-08-17T01:05:27.010Z,21.28
2022-08-17T01:07:57.365Z,21.23
2022-08-17T01:11:00.084Z,21.20
2022-08-17T01:13:20.866Z,21.16
2022-08-17T01:15:57.860Z,21.10
2022-08-17T01:18:26.260Z,21.06
2022-08-17T01:20:55.293Z,21.03
2022-08-17T01:23:25.014Z,21.03
2022-08-17T01:25:54.429Z,21.03
2022-08-17T01:28:52.832Z,21.00
2022-08-17T01:31:10.817Z,21.01
2022-08-17T01:33:37.913Z,20.94
2022-08-17T01:36:07.191Z,20.88
2022-08-17T01:38:35.325Z,20.84
2022-08-17T01:41:06.783Z,20.77
2022-08-17T01:43:39.850Z,20.75
2022-08-17T01:46:07.005Z,20.66
2022-08-17T01:48:35.737Z,20.58
2022-08-17T01:51:03.255Z,20.54
2022-08-17T01:53:35.052Z,20.50
2022-08-17T01:56:07.005Z,20.44
2022-08-17T01:58:35.309Z,20.39
2022-08-17T02:01:02.774Z,20.35
2022-08-17T02:03:30.090Z,20.33
2022-08-17T02:05:57.011Z,20.26
2022-08-17T02:08:37.135Z,20.19
2022-08-17T02:11:11.709Z,20.15
2022-08-17T02:13:38.989Z,20.10
2022-08-17T02:16:05.743Z,20.08
2022-08-17T02:18:32.603Z,20.05
2022-08-17T02:20:59.751Z,20.02
2022-08-17T02:23:29.410Z,20.00
2022-08-17T02:25:58.751Z,20.03
2022-08-17T02:28:25.522Z,19.96
2022-08-17T02:31:01.081Z,19.96
2022-08-17T02:33:43.298Z,19.93
2022-08-17T02:36:12.011Z,19.89
2022-08-17T02:38:39.413Z,19.82
2022-08-17T02:41:06.323Z,19.76
2022-08-17T02:43:32.943Z,19.72
2022-08-17T02:45:59.671Z,19.68
2022-08-17T02:48:30.653Z,19.62
2022-08-17T02:50:58.451Z,19.63
2022-08-17T02:53:25.748Z,19.59
2022-08-17T02:55:52.780Z,19.50
2022-08-17T02:58:34.370Z,19.46
2022-08-17T03:01:06.392Z,19.42
2022-08-17T03:03:33.693Z,19.37
2022-08-17T03:06:00.411Z,19.30
2022-08-17T03:08:27.319Z,19.27
2022-08-17T03:10:53.822Z,19.24
2022-08-17T03:13:20.704Z,19.21
2022-08-17T03:15:48.493Z,19.17
2022-08-17T03:18:24.295Z,19.18
2022-08-17T03:20:59.088Z,19.22
2022-08-17T03:23:27.296Z,19.14
2022-08-17T03:25:55.059Z,19.11
2022-08-17T03:28:23.309Z,19.10
2022-08-17T03:30:51.125Z,19.06
2022-08-17T03:33:18.301Z,19.06
2022-08-17T03:35:45.187Z,19.04
2022-08-17T03:38:15.056Z,18.99
2022-08-17T03:40:58.109Z,18.95
2022-08-17T03:43:30.307Z,18.94
2022-08-17T03:46:28.386Z,18.96
2022-08-17T03:49:22.594Z,19.00
2022-08-17T03:52:07.826Z,18.99
2022-08-17T03:54:53.348Z,18.90
2022-08-17T03:57:19.842Z,18.86
2022-08-17T03:59:46.293Z,18.84
2022-08-17T04:02:24.237Z,18.83
2022-08-17T04:04:51.441Z,18.88
2022-08-17T04:07:23.397Z,18.86
2022-08-17T04:09:50.375Z,18.93
2022-08-17T04:12:19.780Z,18.89
2022-08-17T04:14:53.307Z,18.89
2022-08-17T04:17:28.445Z,18.85
2022-08-17T04:19:55.750Z,18.94
2022-08-17T04:22:30.461Z,18.91
2022-08-17T04:25:18.321Z,18.90
2022-08-17T04:27:44.769Z,18.94
2022-08-17T04:30:12.153Z,18.93
2022-08-17T04:33:06.075Z,18.95
2022-08-17T04:35:54.037Z,19.04
2022-08-17T04:38:24.183Z,19.19
2022-08-17T04:41:09.509Z,19.33
2022-08-17T04:43:37.800Z,19.51
2022-08-17T04:46:07.118Z,19.61
2022-08-17T04:48:37.476Z,19.68
2022-08-17T04:51:15.925Z,19.72
2022-08-17T04:53:44.554Z,19.93
2022-08-17T04:56:16.648Z,19.99
2022-08-17T04:58:47.812Z,19.90
2022-08-17T05:01:16.308Z,19.98
2022-08-17T05:03:50.390Z,20.01
2022-08-17T05:06:16.863Z,19.97
2022-08-17T05:08:43.270Z,19.99
2022-08-17T05:11:10.153Z,20.02
2022-08-17T05:13:36.688Z,20.01
2022-08-17T05:16:04.640Z,20.16
2022-08-17T05:18:31.248Z,20.19
2022-08-17T05:20:58.292Z,20.22
2022-08-17T05:23:26.869Z,20.29
2022-08-17T05:26:02.320Z,20.40
2022-08-17T05:28:30.340Z,20.46
2022-08-17T05:30:59.208Z,20.59
2022-08-17T05:33:29.100Z,20.58
2022-08-17T05:35:57.677Z,20.60
2022-08-17T05:38:26.838Z,20.67
2022-08-17T05:40:54.364Z,20.79
2022-08-17T05:43:24.955Z,20.85
2022-08-17T05:46:01.039Z,20.87
2022-08-17T05:48:35.671Z,20.92
2022-08-17T05:51:25.928Z,20.96
2022-08-17T05:54:14.903Z,21.23
2022-08-17T05:56:49.049Z,21.28
2022-08-17T05:59:34.301Z,21.45
2022-08-17T06:02:19.033Z,21.53
2022-08-17T06:05:06.145Z,21.75
2022-08-17T06:07:49.297Z,21.72
2022-08-17T06:10:37.774Z,21.80
2022-08-17T06:13:35.339Z,21.95
2022-08-17T06:16:05.276Z,22.08
2022-08-17T06:19:14.785Z,22.62
2022-08-17T06:21:44.159Z,23.12
2022-08-17T06:24:35.498Z,23.89
2022-08-17T06:27:09.515Z,24.70
2022-08-17T06:30:02.436Z,25.60
2022-08-17T06:32:29.015Z,27.05
2022-08-17T06:34:55.678Z,27.97
2022-08-17T06:37:32.599Z,28.48
2022-08-17T06:40:20.525Z,29.25
2022-08-17T06:43:07.535Z,29.44
2022-08-17T06:45:42.052Z,29.82
2022-08-17T06:48:24.412Z,30.51
2022-08-17T06:50:59.894Z,31.26
2022-08-17T06:53:45.458Z,32.39
2022-08-17T06:56:14.390Z,32.78
2022-08-17T06:58:43.354Z,32.97
2022-08-17T07:01:20.021Z,33.15
2022-08-17T07:03:49.806Z,33.82
2022-08-17T07:06:19.262Z,33.86
2022-08-17T07:08:54.061Z,33.99
2022-08-17T07:11:28.496Z,33.96
2022-08-17T07:14:36.826Z,34.08
2022-08-17T07:17:08.250Z,33.65
2022-08-17T07:19:40.542Z,34.27
2022-08-17T07:22:57.230Z,35.46
2022-08-17T07:25:18.455Z,35.33
2022-08-17T07:27:53.777Z,35.41
2022-08-17T07:30:26.516Z,36.64
2022-08-17T07:32:57.810Z,35.95
2022-08-17T07:35:34.414Z,35.36
2022-08-17T07:38:24.731Z,34.64
2022-08-17T07:41:05.298Z,35.84
2022-08-17T07:43:41.701Z,35.56
2022-08-17T07:46:29.609Z,36.97
2022-08-17T07:49:06.708Z,36.53
2022-08-17T07:51:37.946Z,38.28
2022-08-17T07:54:22.586Z,38.95
2022-08-17T07:56:55.235Z,39.79
2022-08-17T07:59:33.360Z,40.88
2022-08-17T08:02:08.061Z,39.61
2022-08-17T08:04:59.581Z,40.21
2022-08-17T08:08:00.045Z,41.01
2022-08-17T08:10:32.230Z,41.62
2022-08-17T08:13:12.274Z,39.63
2022-08-17T08:15:44.998Z,39.80
2022-08-17T08:18:54.473Z,41.44
2022-08-17T08:21:13.160Z,42.48
2022-08-17T08:24:09.651Z,41.60
2022-08-17T08:26:57.081Z,41.95
2022-08-17T08:30:00.900Z,39.48
2022-08-17T08:32:57.257Z,39.93
2022-08-17T08:35:34.972Z,40.95
2022-08-17T08:38:10.932Z,42.41
2022-08-17T08:40:52.625Z,42.12
2022-08-17T08:43:36.237Z,41.78
2022-08-17T08:46:27.219Z,40.63
2022-08-17T08:49:10.106Z,41.16
2022-08-17T08:51:49.361Z,41.54
2022-08-17T08:54:45.708Z,42.48
2022-08-17T08:57:32.658Z,43.28
2022-08-17T09:00:20.150Z,42.06
2022-08-17T09:03:31.583Z,42.32
2022-08-17T09:06:32.167Z,42.99
2022-08-17T09:09:24.290Z,43.32
2022-08-17T09:12:20.442Z,43.66
2022-08-17T09:14:51.929Z,42.62
2022-08-17T09:17:27.174Z,41.61
2022-08-17T09:19:59.735Z,42.42
2022-08-17T09:22:37.800Z,42.16
2022-08-17T09:25:14.462Z,40.41
2022-08-17T09:28:03.705Z,38.66
2022-08-17T09:30:44.582Z,41.61
2022-08-17T09:33:15.033Z,43.37
2022-08-17T09:35:48.653Z,43.73
2022-08-17T09:38:32.176Z,43.83
2022-08-17T09:40:59.221Z,40.29
2022-08-17T09:43:54.584Z,41.66
2022-08-17T09:46:28.661Z,42.05
2022-08-17T09:49:16.146Z,42.66
2022-08-17T09:51:49.655Z,43.74
2022-08-17T09:54:39.210Z,43.81
2022-08-17T09:57:31.058Z,44.37
2022-08-17T10:00:09.983Z,44.73
2022-08-17T10:03:11.801Z,44.67
2022-08-17T10:06:08.387Z,42.84
2022-08-17T10:08:42.547Z,44.41
2022-08-17T10:11:50.590Z,43.90
2022-08-17T10:14:37.653Z,42.90
2022-08-17T10:18:18.285Z,43.17
2022-08-17T10:21:31.388Z,46.00
2022-08-17T10:24:33.753Z,46.33
2022-08-17T10:27:02.120Z,45.54
2022-08-17T10:29:46.263Z,44.10
2022-08-17T10:32:32.220Z,42.92
2022-08-17T10:35:17.832Z,43.39
2022-08-17T10:37:59.211Z,42.46
2022-08-17T10:40:35.502Z,41.12
2022-08-17T10:43:24.680Z,41.49
2022-08-17T10:46:30.102Z,40.93
2022-08-17T10:49:15.851Z,40.72
2022-08-17T10:51:42.659Z,42.11
2022-08-17T10:54:24.491Z,40.23
2022-08-17T10:56:56.014Z,43.40
2022-08-17T10:59:34.711Z,44.10
2022-08-17T11:02:01.097Z,44.72
2022-08-17T11:05:00.251Z,45.46
2022-08-17T11:07:45.798Z,45.18
2022-08-17T11:10:35.104Z,43.73
2022-08-17T11:13:23.161Z,41.50
2022-08-17T11:16:11.589Z,41.78
2022-08-17T11:18:57.765Z,39.96
2022-08-17T11:21:58.625Z,40.39
2022-08-17T11:24:37.787Z,40.18
2022-08-17T11:27:13.587Z,39.31
2022-08-17T11:29:58.114Z,39.13
2022-08-17T11:32:47.378Z,39.54
2022-08-17T11:35:20.665Z,41.11
2022-08-17T11:38:13.556Z,41.36
2022-08-17T11:41:05.544Z,40.49
2022-08-17T11:43:49.821Z,40.49
2022-08-17T11:46:22.142Z,41.50
2022-08-17T11:49:27.312Z,42.49
2022-08-17T11:52:01.049Z,40.50
2022-08-17T11:54:33.249Z,39.41
2022-08-17T11:57:41.725Z,39.09
2022-08-17T12:00:51.804Z,39.12
2022-08-17T12:03:26.327Z,39.48
2022-08-17T12:06:03.012Z,39.54
2022-08-17T12:08:32.641Z,39.59
2022-08-17T12:11:03.905Z,39.83
2022-08-17T12:13:39.870Z,39.86
2022-08-17T12:16:08.219Z,37.89
2022-08-17T12:18:41.739Z,38.81
2022-08-17T12:21:26.277Z,39.69
2022-08-17T12:24:10.275Z,39.13
2022-08-17T12:26:37.645Z,38.33
2022-08-17T12:29:07.163Z,39.27
2022-08-17T12:31:44.243Z,38.22
2022-08-17T12:34:40.828Z,39.17
2022-08-17T12:37:19.474Z,40.40
2022-08-17T12:40:06.666Z,40.26
2022-08-17T12:42:37.460Z,40.12
2022-08-17T12:45:07.454Z,40.84
2022-08-17T12:47:37.118Z,41.90
2022-08-17T12:50:29.516Z,41.91
2022-08-17T12:53:01.699Z,40.01
2022-08-17T12:55:32.479Z,39.88
2022-08-17T12:58:00.814Z,40.66
2022-08-17T13:00:31.839Z,39.92
2022-08-17T13:03:16.937Z,38.85
2022-08-17T13:05:57.472Z,38.23
2022-08-17T13:08:36.003Z,38.08
2022-08-17T13:11:13.456Z,38.40
2022-08-17T13:13:44.997Z,37.70
2022-08-17T13:16:11.417Z,37.77
2022-08-17T13:18:43.077Z,37.11
2022-08-17T13:21:22.078Z,36.98
2022-08-17T13:23:56.253Z,36.93
2022-08-17T13:26:37.614Z,37.20
2022-08-17T13:29:51.617Z,36.63
2022-08-17T13:32:43.893Z,36.72
2022-08-17T13:35:38.954Z,36.25
2022-08-17T13:38:09.480Z,36.75
2022-08-17T13:40:41.583Z,36.43
2022-08-17T13:43:08.857Z,37.11
2022-08-17T13:45:41.068Z,37.21
2022-08-17T13:48:08.695Z,38.32
2022-08-17T13:50:45.414Z,38.78
2022-08-17T13:53:40.249Z,38.44
2022-08-17T13:56:36.981Z,38.22
2022-08-17T13:59:02.795Z,37.36
2022-08-17T14:01:30.921Z,37.49
2022-08-17T14:03:58.477Z,37.08
2022-08-17T14:06:52.990Z,36.67
2022-08-17T14:09:14.834Z,36.36
2022-08-17T14:11:42.003Z,35.93
2022-08-17T14:14:08.730Z,36.07
2022-08-17T14:16:35.315Z,36.28
2022-08-17T14:19:02.591Z,36.20
2022-08-17T14:21:29.088Z,36.47
2022-08-17T14:23:55.784Z,36.91
2022-08-17T14:26:23.227Z,36.31
2022-08-17T14:28:56.600Z,35.86
2022-08-17T14:31:23.516Z,36.06
2022-08-17T14:33:50.046Z,36.09
2022-08-17T14:36:16.571Z,35.90
2022-08-17T14:38:45.005Z,36.31
2022-08-17T14:41:11.569Z,36.63
2022-08-17T14:43:39.628Z,36.88
2022-08-17T14:46:06.265Z,36.85
2022-08-17T14:48:34.987Z,36.72
2022-08-17T14:51:01.573Z,36.70
2022-08-17T14:53:28.106Z,36.16
2022-08-17T14:55:54.625Z,35.98
2022-08-17T14:58:21.129Z,35.94
2022-08-17T15:00:50.881Z,35.72
2022-08-17T15:03:18.453Z,35.47
2022-08-17T15:05:46.674Z,35.57
2022-08-17T15:08:13.881Z,35.79
2022-08-17T15:10:40.392Z,35.83
2022-08-17T15:13:33.425Z,35.82
2022-08-17T15:15:59.997Z,35.95
2022-08-17T15:18:26.805Z,35.91
2022-08-17T15:20:56.107Z,36.23
2022-08-17T15:23:25.059Z,36.00
2022-08-17T15:25:53.291Z,35.89
2022-08-17T15:28:23.162Z,35.66
2022-08-17T15:30:50.757Z,35.54
2022-08-17T15:33:20.407Z,35.49
2022-08-17T15:35:51.092Z,35.39
2022-08-17T15:38:18.474Z,35.52
2022-08-17T15:40:47.462Z,35.48
2022-08-17T15:43:26.497Z,35.59
2022-08-17T15:46:00.264Z,35.82
2022-08-17T15:48:41.504Z,35.66
2022-08-17T15:51:24.127Z,35.56
2022-08-17T15:53:53.022Z,35.43
2022-08-17T15:56:19.843Z,35.44
2022-08-17T15:58:47.908Z,35.60
2022-08-17T16:02:24.750Z,35.74
2022-08-17T16:04:07.197Z,35.78
2022-08-17T16:06:50.705Z,35.91
2022-08-17T16:09:17.339Z,35.94
2022-08-17T16:11:46.009Z,35.98
2022-08-17T16:14:20.062Z,36.01
2022-08-17T16:16:46.589Z,35.76
2022-08-17T16:19:13.007Z,35.96
2022-08-17T16:21:43.213Z,35.94
2022-08-17T16:24:13.395Z,35.96
2022-08-17T16:26:41.720Z,35.92
2022-08-17T16:29:08.730Z,35.73
2022-08-17T16:31:37.509Z,35.67
2022-08-17T16:34:17.388Z,35.50
2022-08-17T16:36:51.735Z,35.39
2022-08-17T16:39:22.661Z,34.89
2022-08-17T16:41:50.307Z,35.00
2022-08-17T16:44:19.281Z,34.81
2022-08-17T16:46:47.158Z,34.56
2022-08-17T16:49:25.722Z,34.18
2022-08-17T16:52:03.046Z,34.05
2022-08-17T16:54:29.501Z,33.90
2022-08-17T16:56:56.003Z,33.69
2022-08-17T16:59:31.146Z,33.38
2022-08-17T17:02:04.776Z,33.22
2022-08-17T17:04:35.227Z,33.19
2022-08-17T17:07:37.319Z,32.96
2022-08-17T17:10:08.270Z,32.73
2022-08-17T17:12:59.573Z,32.64
2022-08-17T17:15:27.179Z,32.46
2022-08-17T17:17:58.312Z,32.36
2022-08-17T17:20:35.442Z,32.20
2022-08-17T17:23:07.675Z,32.10
2022-08-17T17:25:48.999Z,32.02
2022-08-17T17:28:43.250Z,31.79
2022-08-17T17:31:18.705Z,31.65
2022-08-17T17:33:50.925Z,31.46
2022-08-17T17:36:40.362Z,31.31
2022-08-17T17:39:14.290Z,31.12
2022-08-17T17:42:14.481Z,30.92
2022-08-17T17:44:49.504Z,30.65
2022-08-17T17:47:16.209Z,30.55
2022-08-17T17:49:44.978Z,30.44
2022-08-17T17:52:26.158Z,30.40
2022-08-17T17:55:06.007Z,30.29
2022-08-17T17:58:02.401Z,30.12
2022-08-17T18:00:50.890Z,30.01
2022-08-17T18:03:23.138Z,29.92
2022-08-17T18:06:10.350Z,29.83
2022-08-17T18:08:40.231Z,29.68
2022-08-17T18:11:13.371Z,29.57
2022-08-17T18:13:53.496Z,29.47
2022-08-17T18:16:20.250Z,29.35
2022-08-17T18:18:50.003Z,29.24
2022-08-17T18:21:21.123Z,29.13
2022-08-17T18:24:01.619Z,29.05
2022-08-17T18:27:08.479Z,28.94
2022-08-17T18:29:41.135Z,28.85
2022-08-17T18:32:28.602Z,28.79
2022-08-17T18:35:27.670Z,28.70
2022-08-17T18:37:55.732Z,28.68
2022-08-17T18:40:32.676Z,28.55
2022-08-17T18:43:26.079Z,28.46
2022-08-17T18:45:55.706Z,28.40
2022-08-17T18:48:25.236Z,28.33
2022-08-17T18:50:53.833Z,28.31
2022-08-17T18:53:34.291Z,28.22
2022-08-17T18:56:44.602Z,28.14
2022-08-17T18:59:16.721Z,28.04
2022-08-17T19:01:52.755Z,27.94
2022-08-17T19:04:32.747Z,27.85
2022-08-17T19:07:08.524Z,27.76
2022-08-17T19:09:38.842Z,27.67
2022-08-17T19:12:09.153Z,27.64
2022-08-17T19:14:36.193Z,27.61
2022-08-17T19:17:11.684Z,27.53
2022-08-17T19:20:13.374Z,27.44
2022-08-17T19:22:55.436Z,27.39
2022-08-17T19:25:27.689Z,27.33
2022-08-17T19:28:20.438Z,27.23
2022-08-17T19:31:01.331Z,27.15
2022-08-17T19:33:29.417Z,27.03
2022-08-17T19:36:06.678Z,26.89
2022-08-17T19:38:56.261Z,26.85
2022-08-17T19:41:28.199Z,26.79
2022-08-17T19:44:14.127Z,26.69
2022-08-17T19:46:50.697Z,26.62
2022-08-17T19:49:58.315Z,26.54
2022-08-17T19:53:01.987Z,26.44
2022-08-17T19:55:53.647Z,26.29
2022-08-17T19:58:41.791Z,26.21
2022-08-17T20:01:14.770Z,26.19
2022-08-17T20:03:52.534Z,26.16
2022-08-17T20:06:20.054Z,26.05
2022-08-17T20:08:55.841Z,26.01
2022-08-17T20:11:28.474Z,25.97
2022-08-17T20:14:00.919Z,25.92
2022-08-17T20:16:27.518Z,25.91
2022-08-17T20:19:03.862Z,25.85
2022-08-17T20:21:46.327Z,25.82
2022-08-17T20:24:28.067Z,25.74
2022-08-17T20:27:01.147Z,25.62
2022-08-17T20:29:37.686Z,25.55
2022-08-17T20:32:19.245Z,25.50
2022-08-17T20:34:46.851Z,25.41
2022-08-17T20:37:13.330Z,25.32
2022-08-17T20:39:45.697Z,25.21
2022-08-17T20:42:15.300Z,25.13
2022-08-17T20:44:43.160Z,25.08
2022-08-17T20:47:13.148Z,24.99
2022-08-17T20:49:44.416Z,24.93
2022-08-17T20:52:18.358Z,24.83
2022-08-17T20:54:57.331Z,24.77
2022-08-17T20:57:32.833Z,24.66
2022-08-17T21:00:14.463Z,24.62
2022-08-17T21:02:44.411Z,24.54
2022-08-17T21:05:27.439Z,24.50
2022-08-17T21:07:59.891Z,24.40
2022-08-17T21:10:26.337Z,24.30
2022-08-17T21:13:01.643Z,24.21
2022-08-17T21:15:35.534Z,24.14
2022-08-17T21:18:20.199Z,24.03
2022-08-17T21:21:17.443Z,23.90
2022-08-17T21:24:03.150Z,23.84
2022-08-17T21:26:50.718Z,23.80
2022-08-17T21:29:31.191Z,23.68
2022-08-17T21:32:03.335Z,23.53
2022-08-17T21:34:39.573Z,23.44
2022-08-17T21:37:29.439Z,23.43
2022-08-17T21:40:10.090Z,23.37
2022-08-17T21:42:39.450Z,23.33
2022-08-17T21:45:22.400Z,23.28
2022-08-17T21:48:07.311Z,23.23
2022-08-17T21:50:35.501Z,23.28
2022-08-17T21:53:03.347Z,23.22
2022-08-17T21:55:31.741Z,23.16
2022-08-17T21:58:13.463Z,23.15
2022-08-17T22:00:44.310Z,23.12
2022-08-17T22:03:23.756Z,23.14
2022-08-17T22:05:51.388Z,23.15
2022-08-17T22:08:21.229Z,23.13
2022-08-17T22:10:50.992Z,23.09
2022-08-17T22:13:17.765Z,23.07
2022-08-17T22:15:47.543Z,23.07
2022-08-17T22:18:21.672Z,23.07
2022-08-17T22:20:50.732Z,23.07
2022-08-17T22:23:47.699Z,23.07
2022-08-17T22:26:15.870Z,23.05
2022-08-17T22:28:45.877Z,23.02
2022-08-17T22:31:24.886Z,22.96
2022-08-17T22:34:03.492Z,22.90
2022-08-17T22:36:33.836Z,22.82
2022-08-17T22:39:02.870Z,22.78
2022-08-17T22:41:34.454Z,22.71
2022-08-17T22:44:14.188Z,22.66
2022-08-17T22:46:51.749Z,22.59
2022-08-17T22:49:36.559Z,22.58
2022-08-17T22:52:23.977Z,22.52
2022-08-17T22:55:25.691Z,22.50
2022-08-17T22:58:10.799Z,22.46
2022-08-17T23:00:46.170Z,22.41
2022-08-17T23:03:13.099Z,22.34
2022-08-17T23:05:44.870Z,22.27
2022-08-17T23:08:13.494Z,22.23
2022-08-17T23:10:41.395Z,22.16
2022-08-17T23:13:11.774Z,22.15
2022-08-17T23:15:41.015Z,22.19
2022-08-17T23:18:08.755Z,22.10
2022-08-17T23:20:38.051Z,22.02
2022-08-17T23:23:06.731Z,21.94
2022-08-17T23:25:35.340Z,21.89
2022-08-17T23:28:05.607Z,21.83
2022-08-17T23:30:34.910Z,21.80
2022-08-17T23:33:05.862Z,21.77
2022-08-17T23:35:40.563Z,21.79
2022-08-17T23:38:10.310Z,21.73
2022-08-17T23:40:39.483Z,21.74
2022-08-17T23:43:11.446Z,21.70
2022-08-17T23:45:50.726Z,21.63
2022-08-17T23:48:34.949Z,21.59
2022-08-17T23:51:19.312Z,21.54
2022-08-17T23:53:48.323Z,21.57
2022-08-17T23:56:15.344Z,21.53
2022-08-17T23:58:43.200Z,21.47
